Time;durP1;ratioP1;P1;durP2;ratioP2;P2;SDS_P1;SDS_P2;PMS_P1;PMS_P2;Temp;Humidity;BMP_temperature;BMP_pressure;BME280_temperature;BME280_humidity;BME280_pressure;Samples;Min_cycle;Max_cycle;Signal;HPM_P1;HPM_P2
2022/12/08 00:02:28;;;;;;;75.20;44.20;;;;;;;2.32;100.00;100510.50;123692;1099;104211;-78
2022/12/08 00:10:45;;;;;;;79.53;46.20;;;;;;;2.29;100.00;100513.80;123510;1099;105586;-77
2022/12/08 00:13:15;;;;;;;;;;;;;;;2.28;100.00;100519.77;123585;1099;104229;-79
2022/12/08 00:15:46;;;;;;;90.37;50.10;;;;;;;2.28;100.00;100518.87;123499;1099;104274;-77
2022/12/08 00:18:17;;;;;;;81.93;46.50;;;;;;;2.26;100.00;100517.84;123211;1099;104335;-78
2022/12/08 00:20:56;;;;;;;83.17;48.37;;;;;;;2.24;100.00;100516.85;123564;1099;104424;-78
2022/12/08 00:23:28;;;;;;;81.17;48.10;;;;;;;2.24;100.00;100509.09;123580;1099;104300;-78
2022/12/08 00:26:04;;;;;;;80.53;48.73;;;;;;;2.24;100.00;100512.56;123509;1099;104508;-78
2022/12/08 00:28:35;;;;;;;85.30;48.27;;;;;;;2.26;100.00;100517.84;123552;1098;104252;-77
2022/12/08 00:31:11;;;;;;;75.93;45.63;;;;;;;2.27;100.00;100519.66;123635;1099;104281;-78
2022/12/08 00:33:42;;;;;;;81.75;48.45;;;;;;;2.28;100.00;100518.87;123534;1099;104396;-77
2022/12/08 00:36:15;;;;;;;86.07;49.87;;;;;;;2.27;100.00;100519.66;123482;1099;104363;-78
2022/12/08 00:38:47;;;;;;;89.07;50.20;;;;;;;2.25;100.00;100516.96;123488;1099;104335;-77
2022/12/08 00:42:10;;;;;;;87.97;49.87;;;;;;;2.26;100.00;100523.02;123552;1099;104275;-77
2022/12/08 00:44:14;;;;;;;94.00;52.47;;;;;;;2.25;100.00;100522.14;123510;1099;104348;-77
2022/12/08 00:46:46;;;;;;;91.20;53.73;;;;;;;2.25;100.00;100524.73;123593;1099;104319;-77
2022/12/08 00:49:18;;;;;;;90.97;53.03;;;;;;;2.25;100.00;100523.84;123611;1099;104413;-77
2022/12/08 00:51:49;;;;;;;92.57;55.37;;;;;;;2.25;100.00;100524.73;123530;1099;104258;-77
2022/12/08 00:54:21;;;;;;;90.37;53.57;;;;;;;2.27;100.00;100519.66;123289;1099;104274;-77
2022/12/08 00:56:53;;;;;;;96.00;56.20;;;;;;;2.26;100.00;100525.61;124037;1099;104284;-77
2022/12/08 00:59:24;;;;;;;92.13;52.27;;;;;;;2.27;100.00;100530.90;123164;1099;104224;-77
2022/12/08 01:01:55;;;;;;;93.30;54.57;;;;;;;2.28;100.00;100524.94;123576;1099;104360;-78
2022/12/08 01:04:26;;;;;;;87.90;52.60;;;;;;;2.27;100.00;100517.95;123564;1099;104219;-79
2022/12/08 01:06:57;;;;;;;87.23;50.93;;;;;;;2.26;100.00;100517.84;123582;1098;104323;-79
2022/12/08 01:09:28;;;;;;;88.93;50.77;;;;;;;2.26;100.00;100525.61;123640;1099;104245;-78
2022/12/08 01:11:59;;;;;;;86.13;49.30;;;;;;;2.27;100.00;100527.42;123239;1099;104319;-78
2022/12/08 01:14:30;;;;;;;76.83;47.10;;;;;;;2.26;100.00;100520.44;123611;1099;104357;-78
2022/12/08 01:17:02;;;;;;;83.23;50.00;;;;;;;2.25;100.00;100519.55;123566;1099;104245;-79
2022/12/08 01:19:33;;;;;;;83.90;49.97;;;;;;;2.27;100.00;100519.66;123494;1099;104380;-79
2022/12/08 01:22:04;;;;;;;85.23;51.30;;;;;;;2.29;100.00;100518.06;123239;1099;104222;-77
2022/12/08 01:24:35;;;;;;;85.13;49.17;;;;;;;2.30;100.00;100515.58;123300;1099;104380;-77
2022/12/08 01:27:06;;;;;;;78.23;45.30;;;;;;;2.31;100.00;100513.91;123648;1099;104204;-77
2022/12/08 01:29:38;;;;;;;85.37;49.57;;;;;;;2.30;100.00;100522.45;123619;1099;104239;-77
2022/12/08 01:32:10;;;;;;;85.37;50.70;;;;;;;2.30;100.00;100528.52;123610;1098;104249;-79
2022/12/08 01:34:41;;;;;;;86.93;50.90;;;;;;;2.34;100.00;100521.89;123663;1098;104274;-79
2022/12/08 01:37:12;;;;;;;88.07;50.90;;;;;;;2.38;100.00;100529.05;123650;1099;104301;-78
2022/12/08 01:39:43;;;;;;;92.53;52.40;;;;;;;2.40;100.00;100537.84;123501;1099;104278;-78
2022/12/08 01:42:21;;;;;;;89.53;52.83;;;;;;;2.40;100.00;100535.26;123534;1099;104331;-78
2022/12/08 01:45:01;;;;;;;87.87;53.80;;;;;;;2.42;100.00;100528.48;123612;1099;104363;-78
2022/12/08 01:47:42;;;;;;;91.23;54.47;;;;;;;2.47;100.00;100533.98;123643;1099;104335;-79
2022/12/08 01:50:17;;;;;;;89.10;52.67;;;;;;;2.49;100.00;100529.79;123562;1098;104348;-78
2022/12/08 01:52:51;;;;;;;86.53;49.93;;;;;;;2.53;100.00;100528.33;123546;1098;104310;-78
2022/12/08 01:55:26;;;;;;;85.10;51.77;;;;;;;2.55;100.00;100535.39;123654;1099;104229;-77
2022/12/08 01:58:00;;;;;;;87.43;52.60;;;;;;;2.57;100.00;100531.23;123683;1098;104332;-77
2022/12/08 02:00:32;;;;;;;86.10;50.77;;;;;;;2.60;100.00;100525.34;123724;1099;104322;-79
2022/12/08 02:03:07;;;;;;;84.37;48.03;;;;;;;2.62;100.00;100526.37;123599;1099;104364;-76
2022/12/08 02:05:40;;;;;;;83.63;48.77;;;;;;;2.63;100.00;100518.70;123615;1099;104213;-77
2022/12/08 02:08:13;;;;;;;81.75;49.67;;;;;;;2.66;100.00;100530.94;123441;1099;104437;-77
2022/12/08 02:10:46;;;;;;;81.80;48.60;;;;;;;2.67;100.00;100528.45;123769;1098;104251;-77
2022/12/08 02:13:21;;;;;;;90.10;51.67;;;;;;;2.69;100.00;100531.15;123602;1099;104271;-77
2022/12/08 02:16:01;;;;;;;93.87;53.77;;;;;;;2.68;100.00;100524.16;123288;1099;104245;-78
2022/12/08 02:18:52;;;;;;;96.73;55.37;;;;;;;2.66;100.00;100529.23;123279;1098;104345;-78
2022/12/08 02:21:34;;;;;;;96.13;56.87;;;;;;;2.68;100.00;100521.56;123223;1099;104297;-77
2022/12/08 02:24:14;;;;;;;103.87;59.60;;;;;;;2.69;100.00;100525.97;123596;1099;110931;-77
2022/12/08 02:27:11;;;;;;;100.70;57.97;;;;;;;2.70;100.00;100527.77;123652;1099;104272;-78
2022/12/08 02:30:04;;;;;;;95.97;57.03;;;;;;;2.72;100.00;100527.88;123626;1099;104198;-78
2022/12/08 02:33:06;;;;;;;106.50;59.70;;;;;;;2.70;100.00;100536.44;123603;1099;104370;-78
2022/12/08 02:35:43;;;;;;;101.20;59.10;;;;;;;2.69;100.00;100541.52;123614;1099;104300;-77
2022/12/08 02:38:23;;;;;;;100.83;61.37;;;;;;;2.70;100.00;100535.55;123586;1099;104230;-78
2022/12/08 02:41:07;;;;;;;112.30;64.87;;;;;;;2.72;100.00;100541.72;123611;1098;104277;-77
2022/12/08 02:43:43;;;;;;;101.43;62.10;;;;;;;2.72;100.00;100539.13;123703;1099;104380;-77
2022/12/08 02:46:19;;;;;;;107.40;65.43;;;;;;;2.74;100.00;100528.87;123698;1099;104338;-78
2022/12/08 02:48:52;;;;;;;107.70;65.57;;;;;;;2.75;100.00;100530.67;123743;1099;104674;-77
2022/12/08 02:51:23;;;;;;;121.10;69.25;;;;;;;2.76;100.00;100532.45;123795;1099;104242;-78
2022/12/08 02:53:57;;;;;;;127.00;74.40;;;;;;;2.78;100.00;100533.47;123770;1099;104334;-78
2022/12/08 02:56:49;;;;;;;112.53;67.73;;;;;;;2.77;100.00;100524.78;123734;1099;104271;-77
2022/12/08 02:59:32;;;;;;;116.43;68.67;;;;;;;2.72;100.00;100522.69;123687;1099;104223;-78
2022/12/08 03:02:20;;;;;;;119.27;71.63;;;;;;;2.68;100.00;100526.75;123758;1099;104277;-77
2022/12/08 03:05:00;;;;;;;123.23;72.10;;;;;;;2.68;100.00;100530.27;123526;1099;113698;-78
2022/12/08 03:07:38;;;;;;;122.17;74.63;;;;;;;2.68;100.00;100529.34;123704;1099;104229;-78
2022/12/08 03:10:15;;;;;;;129.80;74.37;;;;;;;2.67;100.00;100540.52;123642;1099;104252;-78
2022/12/08 03:12:52;;;;;;;118.87;72.17;;;;;;;2.64;100.00;100538.61;123739;1099;104318;-78
2022/12/08 03:15:23;;;;;;;130.90;79.80;;;;;;;2.62;100.00;100547.98;123466;1099;104335;-78
2022/12/08 03:17:59;;;;;;;119.87;74.47;;;;;;;2.61;100.00;100550.47;123648;1098;104267;-77
2022/12/08 03:20:34;;;;;;;123.20;73.80;;;;;;;2.55;100.00;100540.57;123787;1099;104251;-78
2022/12/08 03:23:09;;;;;;;132.07;80.53;;;;;;;2.48;100.00;100538.37;123666;1099;104329;-78
2022/12/08 03:25:43;;;;;;;140.07;86.60;;;;;;;2.43;100.00;100544.91;123664;1099;107845;-77
2022/12/08 03:28:15;;;;;;;145.93;84.33;;;;;;;2.39;100.00;100553.28;123348;1099;104270;-78
2022/12/08 03:30:48;;;;;;;135.90;80.23;;;;;;;2.38;100.00;100556.66;123839;1099;104280;-78
2022/12/08 03:33:24;;;;;;;140.87;84.77;;;;;;;2.38;100.00;100561.83;123596;1099;104274;-78
2022/12/08 03:35:57;;;;;;;139.90;86.45;;;;;;;2.37;100.00;100565.20;123553;1098;117965;-78
2022/12/08 03:38:36;;;;;;;145.27;88.00;;;;;;;2.34;100.00;100565.91;123605;1099;104271;-78
2022/12/08 03:41:20;;;;;;;143.57;88.33;;;;;;;2.33;100.00;100561.52;123620;1099;104243;-77
2022/12/08 03:43:55;;;;;;;154.15;96.08;;;;;;;2.32;100.00;100558.03;123678;1099;104265;-78
2022/12/08 03:46:29;;;;;;;158.33;100.00;;;;;;;2.31;100.00;100558.81;123588;1099;104258;-78
2022/12/08 03:49:00;;;;;;;174.57;105.13;;;;;;;2.29;100.00;100572.44;123578;1099;104361;-78
2022/12/08 03:51:32;;;;;;;185.17;114.70;;;;;;;2.26;100.00;100567.97;123591;1099;104319;-78
2022/12/08 03:54:03;;;;;;;176.53;109.63;;;;;;;2.25;100.00;100568.75;123523;1099;104275;-78
2022/12/08 03:56:38;;;;;;;186.20;115.57;;;;;;;2.25;100.00;100575.63;123638;1099;104345;-77
2022/12/08 03:59:10;;;;;;;189.90;114.80;;;;;;;2.25;100.00;100570.45;123637;1099;104280;-78
2022/12/08 04:01:41;;;;;;;190.13;115.90;;;;;;;2.28;100.00;100560.30;123610;1099;104399;-78
2022/12/08 04:04:12;;;;;;;197.40;118.55;;;;;;;2.30;100.00;100564.77;123642;1098;104245;-78
2022/12/08 04:06:43;;;;;;;196.27;118.90;;;;;;;2.31;100.00;100561.41;123619;1099;104310;-78
2022/12/08 04:09:14;;;;;;;182.60;115.37;;;;;;;2.31;100.00;100566.59;123674;1099;104280;-77
2022/12/08 04:11:45;;;;;;;188.37;111.90;;;;;;;2.29;100.00;100564.67;123676;1098;104249;-78
2022/12/08 04:14:17;;;;;;;184.50;109.87;;;;;;;2.24;100.00;100553.10;123596;1099;104361;-78
2022/12/08 04:16:48;;;;;;;177.17;105.70;;;;;;;2.21;100.00;100563.24;123505;1099;107088;-78
2022/12/08 04:19:19;;;;;;;177.67;105.30;;;;;;;2.20;100.00;100558.84;123518;1099;104251;-78
2022/12/08 04:21:50;;;;;;;182.33;107.20;;;;;;;2.19;100.00;100550.19;123543;1099;104346;-78
2022/12/08 04:24:21;;;;;;;176.80;105.80;;;;;;;2.19;100.00;100557.95;123595;1099;104242;-78
2022/12/08 04:26:53;;;;;;;182.13;106.93;;;;;;;2.20;100.00;100564.02;123499;1099;118803;-78
2022/12/08 04:29:24;;;;;;;191.40;111.93;;;;;;;2.19;100.00;100563.14;123487;1099;104338;-78
2022/12/08 04:31:55;;;;;;;195.93;116.57;;;;;;;2.23;100.00;100566.83;123618;1099;104297;-79
2022/12/08 04:34:26;;;;;;;195.27;114.50;;;;;;;2.27;100.00;100558.49;123542;1099;104348;-77
2022/12/08 04:36:57;;;;;;;197.10;113.33;;;;;;;2.29;100.00;100557.82;123573;1099;104361;-78
2022/12/08 04:39:28;;;;;;;200.63;114.20;;;;;;;2.32;100.00;100565.80;123572;1099;104755;-77
2022/12/08 04:41:59;;;;;;;191.77;112.93;;;;;;;2.33;100.00;100564.10;123509;1098;104351;-78
2022/12/08 04:44:30;;;;;;;196.27;109.80;;;;;;;2.32;100.00;100568.39;123642;1099;104472;-78
2022/12/08 04:47:02;;;;;;;186.00;107.80;;;;;;;2.34;100.00;100571.09;123635;1099;104245;-78
2022/12/08 04:49:33;;;;;;;180.50;105.65;;;;;;;2.35;100.00;100567.69;123665;1098;104265;-78
2022/12/08 04:52:04;;;;;;;180.80;102.03;;;;;;;2.36;100.00;100578.97;123748;1099;104369;-78
2022/12/08 04:54:36;;;;;;;182.60;102.23;;;;;;;2.37;100.00;100576.48;123913;1098;104318;-77
2022/12/08 04:57:07;;;;;;;187.70;103.70;;;;;;;2.40;100.00;100583.55;123694;1099;104316;-81
2022/12/08 04:59:38;;;;;;;180.05;99.20;;;;;;;2.42;100.00;100580.28;124092;1099;104274;-78
2022/12/08 05:02:09;;;;;;;147.23;80.97;;;;;;;2.40;100.00;100584.47;124240;1099;104315;-79
2022/12/08 05:04:40;;;;;;;152.03;75.30;;;;;;;2.32;100.00;100583.94;124288;1099;104348;-79
2022/12/08 05:07:11;;;;;;;145.97;73.07;;;;;;;2.28;100.00;100593.97;124262;1098;104281;-79
2022/12/08 05:09:43;;;;;;;143.50;73.30;;;;;;;2.25;100.00;100591.16;124174;1099;104201;-79
2022/12/08 05:12:15;;;;;;;150.20;72.90;;;;;;;2.24;100.00;100589.35;124155;1099;104357;-79
2022/12/08 05:14:46;;;;;;;148.80;73.83;;;;;;;2.22;100.00;100596.13;124279;1099;104289;-79
2022/12/08 05:17:18;;;;;;;164.03;73.13;;;;;;;2.20;100.00;100598.60;124400;1099;104367;-81
2022/12/08 05:19:49;;;;;;;157.67;73.13;;;;;;;2.20;100.00;100601.19;124654;1099;104264;-80
2022/12/08 05:22:20;;;;;;;155.60;70.87;;;;;;;2.21;100.00;100605.56;124273;1099;104204;-79
2022/12/08 05:24:51;;;;;;;147.45;71.45;;;;;;;2.23;100.00;100610.84;124134;1099;104278;-80
2022/12/08 05:27:23;;;;;;;149.53;66.57;;;;;;;2.25;100.00;100612.77;124237;1099;104239;-79
2022/12/08 05:29:54;;;;;;;134.13;65.07;;;;;;;2.26;100.00;100613.66;124268;1099;104267;-78
2022/12/08 05:32:25;;;;;;;143.03;64.90;;;;;;;2.26;100.00;100614.57;124479;1099;104344;-78
2022/12/08 05:34:56;;;;;;;143.67;64.33;;;;;;;2.28;100.00;100620.75;124462;1099;104287;-79
2022/12/08 05:37:27;;;;;;;146.00;65.57;;;;;;;2.29;100.00;100625.14;124300;1099;104293;-78
2022/12/08 05:39:59;;;;;;;146.03;62.50;;;;;;;2.30;100.00;100623.45;124224;1099;104245;-79
2022/12/08 05:42:30;;;;;;;147.50;66.03;;;;;;;2.32;100.00;100621.85;124221;1099;104291;-80
2022/12/08 05:45:01;;;;;;;148.73;68.43;;;;;;;2.37;100.00;100624.77;124402;1099;104197;-77
2022/12/08 05:47:32;;;;;;;145.50;66.40;;;;;;;2.42;100.00;100626.90;124346;1099;104393;-79
2022/12/08 05:50:04;;;;;;;151.67;68.13;;;;;;;2.47;100.00;100625.52;124475;1099;104270;-79
2022/12/08 05:52:35;;;;;;;136.33;62.97;;;;;;;2.49;100.00;100621.38;124390;1099;104367;-76
2022/12/08 05:55:07;;;;;;;112.17;53.00;;;;;;;2.54;100.00;100620.77;124382;1099;104418;-79
2022/12/08 05:57:38;;;;;;;129.27;55.80;;;;;;;2.53;100.00;100616.41;124297;1099;104380;-77
2022/12/08 06:00:11;;;;;;;134.30;55.20;;;;;;;2.56;100.00;100620.09;124295;1099;104290;-79
2022/12/08 06:02:43;;;;;;;130.47;57.57;;;;;;;2.62;100.00;100625.70;124844;1099;104226;-78
2022/12/08 06:05:14;;;;;;;131.00;57.40;;;;;;;2.68;100.00;100626.13;124564;1099;104632;-78
2022/12/08 06:07:45;;;;;;;132.67;57.50;;;;;;;2.72;100.00;100622.05;124637;1099;104316;-79
2022/12/08 06:10:19;;;;;;;124.87;56.77;;;;;;;2.78;100.00;100621.58;124500;1099;104676;-78
2022/12/08 06:12:50;;;;;;;128.90;54.23;;;;;;;2.84;100.00;100624.59;124647;1099;104240;-80
2022/12/08 06:15:21;;;;;;;141.43;57.07;;;;;;;2.94;100.00;100628.70;124836;1099;104255;-79
2022/12/08 06:17:56;;;;;;;117.40;57.00;;;;;;;3.01;100.00;100642.19;124892;1099;104227;-80
2022/12/08 06:20:27;;;;;;;123.10;54.40;;;;;;;3.08;100.00;100643.50;124859;1099;102110;-78
2022/12/08 06:22:59;;;;;;;118.23;51.93;;;;;;;3.13;100.00;100641.22;125039;1099;103412;-78
2022/12/08 06:25:30;;;;;;;85.40;44.17;;;;;;;3.15;100.00;100644.84;124487;1102;104335;-77
2022/12/08 06:28:04;;;;;;;96.53;47.23;;;;;;;3.00;100.00;100645.56;125036;1099;104265;-77
2022/12/08 06:30:35;;;;;;;93.20;45.95;;;;;;;2.91;100.00;100638.87;125216;1098;102940;-78
2022/12/08 06:33:10;;;;;;;110.73;47.60;;;;;;;2.87;100.00;100640.36;125146;1099;104399;-77
2022/12/08 06:35:42;;;;;;;115.03;49.40;;;;;;;2.86;100.00;100638.55;124800;1099;104274;-76
2022/12/08 06:38:13;;;;;;;102.75;46.90;;;;;;;2.84;100.00;100643.63;125150;1099;104248;-79
2022/12/08 06:40:55;;;;;;;113.70;48.38;;;;;;;2.84;100.00;100647.92;124755;1099;101959;-78
2022/12/08 06:43:28;;;;;;;98.70;44.03;;;;;;;2.86;100.00;100647.21;126899;1098;101792;-77
2022/12/08 06:45:59;;;;;;;91.17;41.70;;;;;;;2.83;100.00;100652.19;125386;1099;104222;-78
2022/12/08 06:48:32;;;;;;;85.63;40.43;;;;;;;2.83;100.00;100656.48;125111;1099;102366;-76
2022/12/08 06:51:10;;;;;;;96.27;42.00;;;;;;;2.86;100.00;100647.21;125002;1099;103417;-77
2022/12/08 06:53:45;;;;;;;91.40;41.47;;;;;;;2.89;100.00;100651.72;124978;1099;104249;-79
2022/12/08 06:56:18;;;;;;;86.00;41.13;;;;;;;2.99;100.00;100654.16;125254;1099;101855;-76
2022/12/08 06:58:49;;;;;;;99.60;42.13;;;;;;;3.12;100.00;100658.48;125261;1099;102826;-77
2022/12/08 07:01:21;;;;;;;108.87;47.33;;;;;;;3.23;100.00;100654.91;125221;1099;104223;-78
2022/12/08 07:03:52;;;;;;;96.00;43.93;;;;;;;3.34;100.00;100660.82;125309;1097;102572;-77
2022/12/08 07:06:25;;;;;;;89.33;42.27;;;;;;;3.36;100.00;100666.11;125271;1099;104159;-77
2022/12/08 07:08:56;;;;;;;80.60;32.73;;;;;;;3.35;100.00;100675.60;125023;1099;103539;-77
2022/12/08 07:11:27;;;;;;;87.53;39.33;;;;;;;3.39;100.00;100674.98;125455;1099;104511;-78
2022/12/08 07:13:58;;;;;;;88.13;39.43;;;;;;;3.46;100.00;100665.95;125460;1098;102724;-80
2022/12/08 07:16:30;;;;;;;90.77;37.17;;;;;;;3.47;100.00;100677.21;124796;1099;102806;-79
2022/12/08 07:19:04;;;;;;;75.10;34.60;;;;;;;3.41;100.00;100681.20;125334;1099;101913;-79
2022/12/08 07:21:34;;;;;;;;;;;;;;;3.34;100.00;100691.06;125445;1099;103000;-77
2022/12/08 07:24:07;;;;;;;70.33;33.93;;;;;;;3.28;100.00;100688.94;125494;1099;104606;-77
2022/12/08 07:26:41;;;;;;;70.60;30.30;;;;;;;3.18;100.00;100692.61;124997;1099;104077;-77
2022/12/08 07:29:13;;;;;;;79.63;30.63;;;;;;;3.13;100.00;100683.63;125308;1099;104229;-76
2022/12/08 07:31:47;;;;;;;80.57;30.70;;;;;;;3.14;100.00;100692.30;125415;1099;103082;-75
2022/12/08 07:34:21;;;;;;;74.40;33.80;;;;;;;3.13;100.00;100696.59;124828;1099;104077;-76
2022/12/08 07:36:53;;;;;;;97.67;35.67;;;;;;;3.18;100.00;100696.88;125101;1099;104792;-77
2022/12/08 07:39:24;;;;;;;78.03;32.57;;;;;;;3.23;100.00;100701.59;125288;1099;102547;-78
2022/12/08 07:41:56;;;;;;;81.17;30.37;;;;;;;3.28;100.00;100704.50;124718;1099;104264;-77
2022/12/08 07:44:28;;;;;;;161.07;42.63;;;;;;;3.26;100.00;100700.91;125076;1099;104245;-77
2022/12/08 07:46:59;;;;;;;94.67;35.67;;;;;;;3.23;100.00;100706.78;125060;1099;104175;-76
2022/12/08 07:49:32;;;;;;;78.00;30.93;;;;;;;3.18;100.00;100694.28;125026;1098;104219;-77
2022/12/08 07:52:07;;;;;;;78.83;29.37;;;;;;;3.18;100.00;100687.42;125171;1099;104185;-77
2022/12/08 07:54:39;;;;;;;78.30;31.20;;;;;;;3.18;100.00;100689.09;125322;1099;102503;-76
2022/12/08 07:57:11;;;;;;;77.70;32.63;;;;;;;3.23;100.00;100696.41;125400;1099;104159;-78
2022/12/08 07:59:45;;;;;;;86.60;31.60;;;;;;;3.30;100.00;100691.63;124988;1099;104243;-76
2022/12/08 08:02:19;;;;;;;85.27;32.40;;;;;;;3.36;100.00;100697.23;125310;1099;102624;-76
2022/12/08 08:04:53;;;;;;;79.87;31.67;;;;;;;3.47;100.00;100696.26;124863;1099;104372;-76
2022/12/08 08:07:26;;;;;;;96.80;35.07;;;;;;;3.59;100.00;100684.11;126858;1098;102742;-77
2022/12/08 08:09:57;;;;;;;118.77;44.47;;;;;;;3.73;100.00;100689.33;126515;1099;102497;-75
2022/12/08 08:12:29;;;;;;;114.93;39.70;;;;;;;3.84;100.00;100688.33;126779;1099;101327;-76
2022/12/08 08:15:04;;;;;;;79.93;31.13;;;;;;;3.92;100.00;100689.72;126696;1098;102827;-78
2022/12/08 08:17:37;;;;;;;84.87;31.30;;;;;;;3.94;100.00;100689.81;126611;1099;103223;-76
2022/12/08 08:20:11;;;;;;;74.20;31.10;;;;;;;3.93;100.00;100699.31;126539;1099;102809;-75
2022/12/08 08:22:42;;;;;;;74.07;30.50;;;;;;;3.90;100.00;100704.30;126128;1099;102763;-77
2022/12/08 08:25:14;;;;;;;70.13;29.40;;;;;;;3.85;100.00;100702.19;126772;1099;102761;-77
2022/12/08 08:27:47;;;;;;;77.13;32.33;;;;;;;3.82;100.00;100702.91;126745;1098;104042;-79
2022/12/08 08:30:20;;;;;;;69.63;30.53;;;;;;;3.82;100.00;100696.80;126250;1098;102034;-78
2022/12/08 08:32:52;;;;;;;70.85;31.00;;;;;;;3.76;100.00;100705.11;126637;1098;102274;-76
2022/12/08 08:35:24;;;;;;;89.07;32.97;;;;;;;3.71;100.00;100709.06;126731;1098;103057;-75
2022/12/08 08:37:56;;;;;;;72.83;32.80;;;;;;;3.70;100.00;100715.08;126566;1099;102704;-77
2022/12/08 08:40:28;;;;;;;61.60;30.17;;;;;;;3.77;100.00;100707.80;126043;1099;103803;-75
2022/12/08 08:43:02;;;;;;;61.27;31.07;;;;;;;3.76;100.00;100697.31;126744;1098;102889;-76
2022/12/08 08:45:32;;;;;;;;;;;;;;;3.73;100.00;100700.59;126124;1099;102256;-75
2022/12/08 08:48:04;;;;;;;77.93;32.33;;;;;;;3.72;100.00;100698.78;126589;1099;103155;-75
2022/12/08 08:50:35;;;;;;;62.63;29.63;;;;;;;3.78;100.00;100699.20;125473;1098;103500;-76
2022/12/08 08:53:08;;;;;;;75.33;30.93;;;;;;;3.81;100.00;100701.11;125062;1099;103487;-75
2022/12/08 08:55:42;;;;;;;71.27;32.53;;;;;;;3.85;100.00;100697.00;124859;1099;104323;-77
2022/12/08 08:58:13;;;;;;;85.63;32.63;;;;;;;3.90;100.00;100693.03;125030;1099;105352;-75
2022/12/08 09:00:46;;;;;;;74.77;32.00;;;;;;;3.98;100.00;100701.33;125173;1099;104204;-76
2022/12/08 09:03:20;;;;;;;66.37;32.20;;;;;;;3.94;100.00;100695.94;125183;1099;104178;-76
2022/12/08 09:05:52;;;;;;;69.47;32.40;;;;;;;3.95;100.00;100696.82;125094;1099;103956;-77
2022/12/08 09:08:24;;;;;;;86.63;34.50;;;;;;;3.96;100.00;100702.11;124810;1099;104357;-76
2022/12/08 09:10:56;;;;;;;82.37;34.97;;;;;;;4.03;100.00;100702.52;125187;1098;103328;-76
2022/12/08 09:13:32;;;;;;;81.85;37.10;;;;;;;4.09;100.00;100698.61;124983;1099;102717;-76
2022/12/08 09:16:11;;;;;;;79.23;33.60;;;;;;;4.08;100.00;100694.23;124780;1099;102328;-76
2022/12/08 09:18:47;;;;;;;83.70;38.13;;;;;;;4.05;100.00;100687.92;124989;1098;104316;-77
2022/12/08 09:21:22;;;;;;;86.47;36.47;;;;;;;4.05;100.00;100685.32;125152;1099;104232;-78
2022/12/08 09:23:56;;;;;;;79.70;36.37;;;;;;;4.08;100.00;100680.33;125078;1099;103335;-76
2022/12/08 09:26:28;;;;;;;78.17;36.17;;;;;;;4.09;100.00;100685.63;124562;1099;104252;-76
2022/12/08 09:29:01;;;;;;;87.13;39.03;;;;;;;4.16;100.00;100692.13;125049;1099;102980;-75
2022/12/08 09:31:32;;;;;;;97.20;39.83;;;;;;;4.19;100.00;100691.41;125211;1099;104176;-76
2022/12/08 09:34:17;;;;;;;83.83;38.20;;;;;;;4.19;100.00;100687.14;125245;1099;102487;-78
2022/12/08 09:36:50;;;;;;;83.30;37.73;;;;;;;4.24;100.00;100690.92;125351;1099;103099;-78
2022/12/08 09:39:23;;;;;;;92.43;40.63;;;;;;;4.23;100.00;100683.91;125646;1099;104190;-78
2022/12/08 09:41:59;;;;;;;107.03;47.40;;;;;;;4.21;100.00;100687.23;125128;1098;104229;-77
2022/12/08 09:44:54;;;;;;;107.50;44.60;;;;;;;4.18;100.00;100679.25;125176;1099;104015;-77
2022/12/08 09:47:29;;;;;;;90.83;39.92;;;;;;;4.16;100.00;100679.14;124626;1099;104297;-76
2022/12/08 09:50:10;;;;;;;86.83;37.23;;;;;;;4.16;100.00;100686.02;125230;1099;104242;-77
2022/12/08 09:52:47;;;;;;;75.50;35.40;;;;;;;4.10;100.00;100676.16;124830;1099;104240;-77
2022/12/08 09:55:33;;;;;;;74.90;32.90;;;;;;;4.06;100.00;100680.23;125504;1099;104686;-76
2022/12/08 09:58:10;;;;;;;72.50;30.07;;;;;;;4.08;100.00;100676.05;125556;1099;103198;-77
2022/12/08 10:00:42;;;;;;;73.97;30.93;;;;;;;4.14;100.00;100685.92;125326;1099;102577;-76
2022/12/08 10:03:14;;;;;;;75.70;32.13;;;;;;;4.16;100.00;100691.21;125327;1099;104188;-76
2022/12/08 10:05:54;;;;;;;66.40;30.97;;;;;;;4.12;100.00;100687.53;125259;1099;104134;-76
2022/12/08 10:08:36;;;;;;;84.10;31.70;;;;;;;4.09;100.00;100696.01;125415;1099;103374;-77
2022/12/08 10:11:14;;;;;;;70.03;30.93;;;;;;;4.09;100.00;100685.63;124922;1099;104278;-77
2022/12/08 10:13:58;;;;;;;74.87;29.60;;;;;;;4.08;100.00;100680.33;125285;1099;107480;-75
2022/12/08 10:16:38;;;;;;;64.15;27.75;;;;;;;4.07;100.00;100681.15;125408;1099;102385;-76
2022/12/08 10:19:21;;;;;;;67.67;29.57;;;;;;;4.07;100.00;100675.95;124902;1102;104223;-77
2022/12/08 10:22:00;;;;;;;62.60;29.43;;;;;;;4.09;100.00;100689.93;126836;1098;101971;-78
2022/12/08 10:24:40;;;;;;;67.17;28.13;;;;;;;4.08;100.00;100688.12;126851;1098;102811;-77
2022/12/08 10:27:16;;;;;;;64.03;28.53;;;;;;;4.08;100.00;100676.05;126758;1098;103505;-77
2022/12/08 10:29:51;;;;;;;58.10;26.33;;;;;;;4.14;100.00;100675.53;126634;1098;102450;-75
2022/12/08 10:32:28;;;;;;;61.67;27.33;;;;;;;4.22;100.00;100676.91;126202;1099;102967;-77
2022/12/08 10:35:08;;;;;;;61.27;27.17;;;;;;;4.28;100.00;100673.81;126572;1099;101863;-76
2022/12/08 10:37:56;;;;;;;57.20;26.20;;;;;;;4.36;100.00;100671.70;126568;1099;102865;-77
2022/12/08 10:40:37;;;;;;;59.95;27.80;;;;;;;4.49;100.00;100671.69;126072;1099;102977;-78
2022/12/08 10:43:18;;;;;;;58.67;26.73;;;;;;;4.58;100.00;100667.07;126711;1099;102150;-77
2022/12/08 10:45:51;;;;;;;58.23;27.53;;;;;;;4.68;100.00;100674.61;126851;1098;102212;-77
2022/12/08 10:48:26;;;;;;;69.00;30.15;;;;;;;4.81;100.00;100664.97;126819;1098;102865;-78
2022/12/08 10:51:02;;;;;;;62.47;28.13;;;;;;;4.90;100.00;100662.94;126731;1098;102405;-77
2022/12/08 10:53:44;;;;;;;61.60;27.30;;;;;;;4.95;100.00;100652.82;126622;1099;102229;-77
2022/12/08 10:56:17;;;;;;;61.53;27.13;;;;;;;4.99;100.00;100649.61;126011;1099;102961;-77
2022/12/08 10:58:49;;;;;;;52.73;24.80;;;;;;;5.07;100.00;100647.47;126746;1098;103012;-77
2022/12/08 11:01:24;;;;;;;55.07;25.43;;;;;;;5.17;100.00;100644.59;126706;1098;102127;-77
2022/12/08 11:03:59;;;;;;;60.10;27.20;;;;;;;5.22;100.00;100645.79;126631;1099;103885;-77
2022/12/08 11:06:37;;;;;;;62.37;27.77;;;;;;;5.26;100.00;100642.54;126642;1098;102659;-76
2022/12/08 11:09:26;;;;;;;61.03;25.97;;;;;;;5.30;100.00;100641.01;126710;1099;101883;-78
2022/12/08 11:12:07;;;;;;;58.20;26.97;;;;;;;5.33;100.00;100642.11;126770;1099;102007;-78
2022/12/08 11:14:50;;;;;;;62.70;28.90;;;;;;;5.33;100.00;100636.91;126678;1099;102858;-77
2022/12/08 11:17:27;;;;;;;59.45;26.90;;;;;;;5.35;100.00;100629.19;126471;1098;102637;-77
2022/12/08 11:20:01;;;;;;;53.67;26.00;;;;;;;5.30;100.00;100634.13;126591;1098;102110;-78
2022/12/08 11:22:37;;;;;;;62.60;27.83;;;;;;;5.28;100.00;100629.63;126401;1099;102648;-77
2022/12/08 11:25:18;;;;;;;60.17;27.50;;;;;;;5.34;100.00;100622.17;126380;1099;111833;-77
2022/12/08 11:27:52;;;;;;;60.23;28.20;;;;;;;5.36;100.00;100620.55;126360;1099;102349;-79
2022/12/08 11:30:26;;;;;;;64.80;28.13;;;;;;;5.37;100.00;100622.36;126520;1099;103820;-78